Skip Navigation Links
NOAA logo - Click to go to the NOAA homepage
NOAA's National Weather Service
Alaska Aviation Weather Unit
  NWS logo - Click to go to the NWS homepage
Left Navbar Graphic     02 AKDT = 10 GMT

   
NOAA is celebrating 200 years of science, service, and stewardship. Visit the NOAA 200th celebration Web site to learn more.
USA.gov is the U.S. Government's official Web portal to all Federal, state and local government Web resources and services.
Facebook
NWS on Facebook

AAWU Home :: Display TAF Add Bookmark
TAF PANC 270533Z 2706/2812 36009KT P6SM SCT070 SCT200
     FM272200 36006KT P6SM VCSH BKN070 OVC100=
METAR PANC 270453Z 00000KT 10SM FEW070 M03/M09 A2960=

METAR PANC 270553Z 00000KT 10SM FEW070 M04/M11 A2959=

METAR PANC 270653Z 02003KT 10SM CLR M05/M12 A2958=

METAR PANC 270753Z 34004KT 10SM CLR M04/M10 A2957=

METAR PANC 270853Z 34005KT 10SM CLR M04/M11 A2956=

METAR PANC 270953Z 33004KT 10SM CLR M06/M11 A2955=


NOAA's National Weather Service
Alaska Aviation Weather Unit
6930 Sand Lake Road
Anchorage, AK 99502-1845
Disclaimer
Credits
Glossary
Privacy Policy
About Us
Career Opportunities
Contact AAWU Internet Services Site last modified: April, 17th 2012